Time;durP1;ratioP1;P1;durP2;ratioP2;P2;SDS_P1;SDS_P2;PMS_P1;PMS_P2;Temp;Humidity;BMP_temperature;BMP_pressure;BME280_temperature;BME280_humidity;BME280_pressure;Samples;Min_cycle;Max_cycle;Signal;HPM_P1;HPM_P2
2020/12/21 00:01:56;;;;;;;17.63;16.07;;;6.50;99.90;;;;;;5118488;27;20463;-74
2020/12/21 00:04:24;;;;;;;17.53;15.93;;;6.40;99.90;;;;;;5123854;27;20456;-76
2020/12/21 00:06:54;;;;;;;23.20;15.90;;;6.40;99.90;;;;;;5121224;27;20495;-75
2020/12/21 00:09:22;;;;;;;16.87;15.77;;;6.40;99.90;;;;;;5118377;27;20862;-75
2020/12/21 00:11:50;;;;;;;17.27;15.47;;;6.40;99.90;;;;;;5120309;27;20966;-75
2020/12/21 00:14:18;;;;;;;17.17;15.87;;;6.30;99.90;;;;;;5116575;27;20464;-74
2020/12/21 00:16:46;;;;;;;16.37;14.87;;;6.30;99.90;;;;;;5122723;27;20523;-75
2020/12/21 00:19:13;;;;;;;17.33;15.70;;;6.30;99.90;;;;;;5123663;27;20495;-74
2020/12/21 00:21:41;;;;;;;18.37;16.70;;;6.20;99.90;;;;;;5124012;27;20973;-76
2020/12/21 00:24:08;;;;;;;16.93;15.50;;;6.10;99.90;;;;;;5119552;27;20510;-75
2020/12/21 00:26:35;;;;;;;17.93;15.57;;;6.10;99.90;;;;;;5120234;27;20464;-75
2020/12/21 00:29:02;;;;;;;17.13;15.77;;;6.00;99.90;;;;;;5121509;27;20476;-74
2020/12/21 00:31:29;;;;;;;17.30;15.70;;;6.00;99.90;;;;;;5124714;27;20459;-74
2020/12/21 00:33:57;;;;;;;17.13;15.70;;;6.00;99.90;;;;;;5122457;27;20477;-75
2020/12/21 00:36:23;;;;;;;17.77;16.50;;;6.00;99.90;;;;;;5122476;27;20462;-74
2020/12/21 00:38:50;;;;;;;17.43;16.23;;;6.00;99.90;;;;;;5119710;27;20457;-75
2020/12/21 00:41:19;;;;;;;18.83;16.90;;;6.00;99.90;;;;;;5120243;27;20452;-75
2020/12/21 00:43:47;;;;;;;17.57;15.83;;;6.00;99.90;;;;;;5122480;27;20457;-75
2020/12/21 00:46:14;;;;;;;18.27;16.30;;;5.90;99.90;;;;;;5124522;27;20456;-76
2020/12/21 00:48:42;;;;;;;18.87;15.47;;;5.90;99.90;;;;;;5120369;27;21388;-76
2020/12/21 00:51:08;;;;;;;18.17;16.40;;;5.90;99.90;;;;;;5117725;27;20468;-74
2020/12/21 00:53:34;;;;;;;18.20;16.80;;;5.90;99.90;;;;;;5116951;27;20453;-75
2020/12/21 00:56:02;;;;;;;16.60;15.37;;;5.80;99.90;;;;;;5122556;27;20458;-74
2020/12/21 00:58:30;;;;;;;20.37;16.17;;;5.80;99.90;;;;;;5121871;27;20500;-73
2020/12/21 01:00:59;;;;;;;18.90;16.27;;;5.80;99.90;;;;;;5121477;27;20468;-74
2020/12/21 01:03:25;;;;;;;18.37;16.97;;;5.80;99.90;;;;;;5121579;27;20471;-74
2020/12/21 01:05:53;;;;;;;16.77;15.00;;;5.80;99.90;;;;;;5116249;27;20487;-74
2020/12/21 01:08:20;;;;;;;23.53;16.80;;;5.80;99.90;;;;;;5122685;27;20484;-75
2020/12/21 01:10:47;;;;;;;17.60;16.30;;;5.70;99.90;;;;;;5120822;27;20488;-74
2020/12/21 01:13:13;;;;;;;16.90;15.63;;;5.70;99.90;;;;;;5121002;27;20833;-74
2020/12/21 01:15:39;;;;;;;18.30;16.57;;;5.70;99.90;;;;;;5119928;27;20456;-75
2020/12/21 01:18:06;;;;;;;18.20;16.47;;;5.70;99.90;;;;;;5116699;27;20456;-74
2020/12/21 01:20:34;;;;;;;16.67;15.43;;;5.60;99.90;;;;;;5124836;27;20457;-74
2020/12/21 01:23:03;;;;;;;18.70;16.90;;;5.60;99.90;;;;;;5118291;27;20489;-74
2020/12/21 01:25:31;;;;;;;16.37;15.17;;;5.60;99.90;;;;;;5122295;27;20468;-74
2020/12/21 01:27:57;;;;;;;21.07;15.57;;;5.70;99.90;;;;;;5117631;27;20464;-74
2020/12/21 01:30:26;;;;;;;16.67;15.30;;;5.60;99.90;;;;;;5120205;27;20484;-75
2020/12/21 01:32:53;;;;;;;17.53;15.63;;;5.60;99.90;;;;;;5116117;27;20469;-74
2020/12/21 01:35:20;;;;;;;17.37;16.07;;;5.50;99.90;;;;;;5120156;27;20460;-74
2020/12/21 01:37:47;;;;;;;18.00;16.20;;;5.40;99.90;;;;;;5117290;27;20493;-74
2020/12/21 01:40:13;;;;;;;17.77;16.20;;;5.40;99.90;;;;;;5117850;27;20579;-74
2020/12/21 01:42:42;;;;;;;17.87;16.13;;;5.30;99.90;;;;;;5119785;27;20465;-75
2020/12/21 01:45:09;;;;;;;16.63;15.23;;;5.20;99.90;;;;;;5119263;27;20464;-74
2020/12/21 01:47:37;;;;;;;18.53;16.80;;;5.20;99.90;;;;;;5118428;27;20467;-75
2020/12/21 01:50:04;;;;;;;17.17;15.80;;;5.20;99.90;;;;;;5124450;27;20495;-74
2020/12/21 01:52:32;;;;;;;17.50;16.00;;;5.20;99.90;;;;;;5121024;27;20542;-74
2020/12/21 01:54:59;;;;;;;25.33;17.03;;;5.20;99.90;;;;;;5121281;27;20965;-74
2020/12/21 01:57:25;;;;;;;17.93;16.53;;;5.20;99.90;;;;;;5118945;27;20490;-74
2020/12/21 01:59:52;;;;;;;18.50;16.70;;;5.20;99.90;;;;;;5119888;27;20481;-74
2020/12/21 02:02:18;;;;;;;19.03;17.03;;;5.20;99.90;;;;;;5119141;27;20464;-74
2020/12/21 02:04:45;;;;;;;18.77;16.90;;;5.30;99.90;;;;;;5116015;27;20465;-74
2020/12/21 02:07:13;;;;;;;18.40;16.90;;;5.40;99.90;;;;;;5126119;27;20448;-75
2020/12/21 02:09:42;;;;;;;18.37;16.67;;;5.40;99.90;;;;;;5122545;27;20472;-74
2020/12/21 02:12:08;;;;;;;18.73;16.80;;;5.40;99.90;;;;;;5115999;27;20461;-74
2020/12/21 02:14:35;;;;;;;19.13;17.40;;;5.50;99.90;;;;;;5119217;27;20472;-74
2020/12/21 02:17:02;;;;;;;19.93;17.43;;;5.50;99.90;;;;;;5120796;28;20830;-74
2020/12/21 02:19:29;;;;;;;19.20;17.40;;;5.60;99.90;;;;;;5124505;28;20468;-74
2020/12/21 02:21:57;;;;;;;19.40;17.80;;;5.50;99.90;;;;;;5115205;28;20547;-74
2020/12/21 02:24:24;;;;;;;18.87;17.57;;;5.50;99.90;;;;;;5114704;28;20477;-74
2020/12/21 02:26:50;;;;;;;18.10;16.80;;;5.60;99.90;;;;;;5117345;28;20452;-74
2020/12/21 02:29:17;;;;;;;18.70;17.30;;;5.60;99.90;;;;;;5122826;28;20484;-74
2020/12/21 02:31:44;;;;;;;18.97;17.10;;;5.60;99.90;;;;;;5123689;28;20594;-74
2020/12/21 02:34:11;;;;;;;19.90;18.13;;;5.50;99.90;;;;;;5116955;28;20835;-75
2020/12/21 02:36:37;;;;;;;18.77;17.27;;;5.50;99.90;;;;;;5118010;28;20471;-74
2020/12/21 02:39:05;;;;;;;18.37;16.90;;;5.50;99.90;;;;;;5120067;28;20552;-75
2020/12/21 02:41:33;;;;;;;19.87;17.87;;;5.40;99.90;;;;;;5118922;28;20455;-75
2020/12/21 02:43:59;;;;;;;22.57;17.57;;;5.50;99.90;;;;;;5112816;28;20988;-74
2020/12/21 02:46:25;;;;;;;19.20;17.30;;;5.50;99.90;;;;;;5117040;28;20453;-74
2020/12/21 02:48:51;;;;;;;19.87;17.93;;;5.50;99.90;;;;;;5118937;27;20474;-74
2020/12/21 02:51:18;;;;;;;17.83;16.63;;;5.50;99.90;;;;;;5120013;27;20486;-74
2020/12/21 02:53:44;;;;;;;19.20;17.13;;;5.60;99.90;;;;;;5119796;27;20472;-74
2020/12/21 02:56:12;;;;;;;18.77;16.90;;;5.60;99.90;;;;;;5121348;27;20509;-73
2020/12/21 02:58:39;;;;;;;19.07;17.60;;;5.60;99.90;;;;;;5123514;27;20481;-74
2020/12/21 03:01:06;;;;;;;19.27;17.53;;;5.60;99.90;;;;;;5122747;27;20916;-74
2020/12/21 03:03:32;;;;;;;18.20;17.00;;;5.70;99.90;;;;;;5123836;27;20463;-74
2020/12/21 03:05:58;;;;;;;20.57;17.97;;;5.60;99.90;;;;;;5117155;27;20460;-74
2020/12/21 03:08:25;;;;;;;19.23;17.83;;;5.60;99.90;;;;;;5125352;27;20898;-75
2020/12/21 03:10:51;;;;;;;19.63;17.70;;;5.60;99.90;;;;;;5120997;27;20488;-74
2020/12/21 03:13:18;;;;;;;19.97;18.30;;;5.60;99.90;;;;;;5125310;27;20452;-75
2020/12/21 03:15:44;;;;;;;19.13;17.70;;;5.60;99.90;;;;;;5120101;27;20464;-74
2020/12/21 03:18:10;;;;;;;20.53;18.93;;;5.50;99.90;;;;;;5124857;27;20455;-75
2020/12/21 03:20:37;;;;;;;20.03;18.60;;;5.50;99.90;;;;;;5125799;27;20480;-74
2020/12/21 03:23:05;;;;;;;21.23;19.13;;;5.40;99.90;;;;;;5124914;27;20460;-74
2020/12/21 03:25:31;;;;;;;21.17;19.30;;;5.40;99.90;;;;;;5121949;27;20540;-74
2020/12/21 03:27:57;;;;;;;20.40;18.80;;;5.30;99.90;;;;;;5123421;27;20457;-73
2020/12/21 03:30:25;;;;;;;22.83;20.53;;;5.30;99.90;;;;;;5120022;27;20528;-74
2020/12/21 03:32:51;;;;;;;23.23;20.90;;;5.20;99.90;;;;;;5125823;27;20819;-74
2020/12/21 03:35:18;;;;;;;22.53;19.63;;;5.10;99.90;;;;;;5121840;27;20444;-74
2020/12/21 03:37:44;;;;;;;21.67;19.40;;;5.00;99.90;;;;;;5125049;27;20483;-74
2020/12/21 03:40:11;;;;;;;20.60;18.70;;;4.90;99.90;;;;;;5121990;27;20460;-75
2020/12/21 03:42:37;;;;;;;21.30;19.43;;;5.00;99.90;;;;;;5122313;27;20585;-74
2020/12/21 03:45:05;;;;;;;21.63;19.43;;;5.00;99.90;;;;;;5124379;27;20487;-74
2020/12/21 03:47:32;;;;;;;19.90;18.60;;;4.90;99.90;;;;;;5120058;27;20517;-75
2020/12/21 03:49:59;;;;;;;19.50;17.97;;;4.90;99.90;;;;;;5124280;27;20991;-75
2020/12/21 03:52:25;;;;;;;21.07;19.33;;;5.00;99.90;;;;;;5121127;27;20870;-74
2020/12/21 03:54:51;;;;;;;22.83;18.67;;;5.10;99.90;;;;;;5122740;27;20463;-74
2020/12/21 03:57:17;;;;;;;19.57;17.90;;;5.00;99.90;;;;;;5126223;27;21033;-74
2020/12/21 03:59:44;;;;;;;20.40;18.70;;;5.00;99.90;;;;;;5117653;27;21139;-73
2020/12/21 04:02:11;;;;;;;20.03;18.00;;;5.00;99.90;;;;;;5121200;27;20460;-73
2020/12/21 04:04:38;;;;;;;19.47;18.10;;;4.90;99.90;;;;;;5119182;27;20449;-74
2020/12/21 04:07:04;;;;;;;21.63;18.90;;;4.80;99.90;;;;;;5118390;27;20463;-74
2020/12/21 04:09:33;;;;;;;20.37;18.47;;;4.80;99.90;;;;;;5124180;27;21018;-74
2020/12/21 04:12:01;;;;;;;20.37;18.33;;;4.80;99.90;;;;;;5118486;27;20987;-74
2020/12/21 04:14:27;;;;;;;19.73;18.33;;;4.80;99.90;;;;;;5126313;27;20452;-74
2020/12/21 04:16:55;;;;;;;19.90;18.10;;;4.90;99.90;;;;;;5123387;27;20464;-73
2020/12/21 04:19:21;;;;;;;24.57;20.00;;;4.90;99.90;;;;;;5118228;27;20484;-74
2020/12/21 04:21:49;;;;;;;19.10;17.80;;;4.80;99.90;;;;;;5118049;27;20797;-74
2020/12/21 04:24:16;;;;;;;25.70;19.27;;;4.80;99.90;;;;;;5124005;27;20459;-74
2020/12/21 04:26:43;;;;;;;19.57;18.10;;;4.80;99.90;;;;;;5117254;27;20472;-74
2020/12/21 04:29:09;;;;;;;21.43;19.30;;;4.80;99.90;;;;;;5126239;27;20871;-74
2020/12/21 04:31:35;;;;;;;19.77;18.20;;;4.80;99.90;;;;;;5122594;27;20920;-75
2020/12/21 04:34:02;;;;;;;19.90;18.03;;;4.80;99.90;;;;;;5119331;27;21033;-74
2020/12/21 04:36:29;;;;;;;20.37;18.43;;;4.90;99.90;;;;;;5118999;27;20499;-74
2020/12/21 04:38:58;;;;;;;18.80;17.70;;;4.90;99.90;;;;;;5122824;27;20553;-74
2020/12/21 04:41:25;;;;;;;20.40;18.30;;;4.90;99.90;;;;;;5123086;27;20456;-74
2020/12/21 04:43:54;;;;;;;20.90;18.87;;;4.90;99.90;;;;;;5125902;27;20495;-74
2020/12/21 04:46:22;;;;;;;19.93;18.13;;;4.80;99.90;;;;;;5117259;27;20825;-75
2020/12/21 04:48:50;;;;;;;22.00;19.63;;;4.80;99.90;;;;;;5116722;27;20553;-74
2020/12/21 04:51:21;;;;;;;20.90;18.90;;;4.90;99.90;;;;;;5122504;27;20484;-74
2020/12/21 04:53:50;;;;;;;21.97;19.43;;;4.90;99.90;;;;;;5122742;27;20453;-74
2020/12/21 04:56:21;;;;;;;20.17;18.20;;;4.90;99.90;;;;;;5123883;27;20497;-74
2020/12/21 04:58:48;;;;;;;22.63;19.63;;;4.80;99.90;;;;;;5122855;27;20491;-74
2020/12/21 05:01:14;;;;;;;21.17;19.40;;;4.80;99.90;;;;;;5125317;27;20457;-74
2020/12/21 05:03:41;;;;;;;20.93;19.20;;;4.80;99.90;;;;;;5126287;27;20950;-74
2020/12/21 05:06:08;;;;;;;22.10;19.30;;;4.80;99.90;;;;;;5125920;27;20819;-74
2020/12/21 05:08:35;;;;;;;20.83;18.77;;;4.80;99.90;;;;;;5123794;27;20458;-74
2020/12/21 05:11:03;;;;;;;21.13;19.07;;;4.80;99.90;;;;;;5124929;27;20492;-74
2020/12/21 05:13:32;;;;;;;20.10;18.33;;;4.70;99.90;;;;;;5118820;27;20461;-74
2020/12/21 05:15:59;;;;;;;20.77;18.87;;;4.70;99.90;;;;;;5125253;27;20459;-74
2020/12/21 05:18:27;;;;;;;20.37;18.77;;;4.70;99.90;;;;;;5125616;27;20516;-75
2020/12/21 05:20:58;;;;;;;19.90;18.57;;;4.80;99.90;;;;;;5125561;27;20962;-74
2020/12/21 05:23:25;;;;;;;20.63;18.93;;;4.80;99.90;;;;;;5121410;27;20829;-75
2020/12/21 05:26:01;;;;;;;21.37;19.10;;;4.80;99.90;;;;;;5117882;27;20878;-74
2020/12/21 05:28:29;;;;;;;19.63;18.13;;;4.80;99.90;;;;;;5122828;27;20498;-75
2020/12/21 05:30:58;;;;;;;20.60;18.77;;;4.70;99.90;;;;;;5123987;27;20901;-74
2020/12/21 05:33:24;;;;;;;20.97;19.27;;;4.70;99.90;;;;;;5118819;27;20473;-74
2020/12/21 05:35:51;;;;;;;21.17;19.37;;;4.80;99.90;;;;;;5123521;27;20460;-74
2020/12/21 05:38:26;;;;;;;19.90;18.00;;;4.80;99.90;;;;;;5120897;27;20452;-74
2020/12/21 05:40:54;;;;;;;20.03;18.63;;;4.80;99.90;;;;;;5119454;27;20471;-74
2020/12/21 05:43:28;;;;;;;25.03;20.43;;;4.80;99.90;;;;;;5123550;27;20457;-75
2020/12/21 05:46:06;;;;;;;20.13;18.10;;;4.80;99.90;;;;;;5115962;27;20869;-74
2020/12/21 05:48:35;;;;;;;20.57;18.77;;;4.80;99.90;;;;;;5116341;27;20490;-74
2020/12/21 05:51:03;;;;;;;20.43;18.53;;;4.90;99.90;;;;;;5123839;27;21024;-74
2020/12/21 05:53:42;;;;;;;20.50;18.33;;;4.80;99.90;;;;;;5119763;27;20633;-74
2020/12/21 05:56:09;;;;;;;20.87;17.83;;;4.80;99.90;;;;;;5117261;27;20461;-74
2020/12/21 05:58:38;;;;;;;20.17;18.70;;;4.80;99.90;;;;;;5122452;27;20495;-74
2020/12/21 06:01:08;;;;;;;20.30;18.60;;;4.90;99.90;;;;;;5128692;27;20463;-74
2020/12/21 06:03:43;;;;;;;20.00;18.30;;;4.90;99.90;;;;;;5114072;27;20453;-74
2020/12/21 06:06:12;;;;;;;19.60;18.10;;;4.90;99.90;;;;;;5119610;27;20465;-75
2020/12/21 06:08:40;;;;;;;19.90;18.70;;;4.90;99.90;;;;;;5119419;27;20502;-74
2020/12/21 06:11:15;;;;;;;23.60;19.33;;;5.00;99.90;;;;;;5114620;27;20533;-73
2020/12/21 06:13:46;;;;;;;19.40;17.93;;;5.00;99.90;;;;;;5115106;27;20449;-74
2020/12/21 06:16:17;;;;;;;20.73;18.60;;;5.10;99.90;;;;;;5116584;28;20449;-75
2020/12/21 06:18:55;;;;;;;19.67;18.10;;;5.00;99.90;;;;;;5121318;28;20491;-75
2020/12/21 06:21:27;;;;;;;19.53;18.20;;;5.00;99.90;;;;;;5115107;28;20457;-74
2020/12/21 06:23:54;;;;;;;19.90;18.17;;;5.10;99.90;;;;;;5118911;28;20530;-75
2020/12/21 06:26:31;;;;;;;19.33;17.87;;;5.10;99.90;;;;;;5120932;27;20463;-74
2020/12/21 06:28:59;;;;;;;21.20;18.90;;;5.10;99.90;;;;;;5119877;27;20452;-74
2020/12/21 06:31:37;;;;;;;20.40;18.27;;;5.10;99.90;;;;;;5127592;27;20541;-75
2020/12/21 06:34:04;;;;;;;20.13;18.60;;;5.10;99.90;;;;;;5123118;27;20497;-74
2020/12/21 06:36:31;;;;;;;21.03;19.00;;;5.10;99.90;;;;;;5123985;27;20462;-74
2020/12/21 06:38:58;;;;;;;20.03;18.37;;;5.10;99.90;;;;;;5120958;27;20488;-74
2020/12/21 06:41:25;;;;;;;20.40;18.50;;;5.10;99.90;;;;;;5124423;27;20457;-75
2020/12/21 06:43:59;;;;;;;20.53;18.40;;;5.10;99.90;;;;;;5124723;27;20464;-74
2020/12/21 06:46:28;;;;;;;20.13;18.27;;;5.10;99.90;;;;;;5120285;27;20944;-74
2020/12/21 06:49:14;;;;;;;20.00;18.30;;;5.10;99.90;;;;;;5120642;27;20453;-75
2020/12/21 06:51:42;;;;;;;19.43;18.03;;;5.20;99.90;;;;;;5120961;27;20576;-74
2020/12/21 06:54:10;;;;;;;19.97;17.80;;;5.20;99.90;;;;;;5122373;27;20472;-74
2020/12/21 06:56:37;;;;;;;22.83;20.63;;;5.20;99.90;;;;;;5123147;27;20618;-75
2020/12/21 06:59:09;;;;;;;20.60;18.47;;;5.20;99.90;;;;;;5121695;27;20489;-74
2020/12/21 07:01:37;;;;;;;19.40;17.67;;;5.30;99.90;;;;;;5124127;27;20469;-74
2020/12/21 07:04:03;;;;;;;19.50;17.60;;;5.30;99.90;;;;;;5132767;27;20472;-74
2020/12/21 07:06:30;;;;;;;19.07;17.43;;;5.30;99.90;;;;;;5126714;27;20835;-74
2020/12/21 07:08:59;;;;;;;18.50;17.03;;;5.20;99.90;;;;;;5124055;27;20469;-75
2020/12/21 07:11:25;;;;;;;21.50;17.80;;;5.20;99.90;;;;;;5128614;27;21041;-74
2020/12/21 07:13:52;;;;;;;18.73;17.30;;;5.20;99.90;;;;;;5125026;27;20869;-74
2020/12/21 07:16:20;;;;;;;19.33;17.70;;;5.20;99.90;;;;;;5127828;27;20539;-74
2020/12/21 07:18:48;;;;;;;20.00;17.23;;;5.20;99.90;;;;;;5126445;27;20469;-74
2020/12/21 07:21:15;;;;;;;18.67;17.17;;;5.20;99.90;;;;;;5120125;27;20557;-75
2020/12/21 07:23:43;;;;;;;18.60;16.93;;;5.20;99.90;;;;;;5127436;27;20529;-74
2020/12/21 07:26:11;;;;;;;18.70;17.40;;;5.30;99.90;;;;;;5121112;27;21020;-75
2020/12/21 07:28:37;;;;;;;19.00;17.70;;;5.30;99.90;;;;;;5130725;27;20463;-75
2020/12/21 07:31:06;;;;;;;20.20;18.10;;;5.30;99.90;;;;;;5126978;27;20950;-74
2020/12/21 07:33:33;;;;;;;21.57;17.33;;;5.30;99.90;;;;;;5121564;27;20506;-74
2020/12/21 07:36:03;;;;;;;19.00;17.20;;;5.40;99.90;;;;;;5120922;27;20541;-75
2020/12/21 07:38:30;;;;;;;19.97;18.10;;;5.40;99.90;;;;;;5126520;27;20491;-75
2020/12/21 07:40:59;;;;;;;20.10;18.60;;;5.40;99.90;;;;;;5116319;27;20463;-75
2020/12/21 07:43:31;;;;;;;19.83;18.40;;;5.40;99.90;;;;;;5121294;27;20461;-75
2020/12/21 07:46:03;;;;;;;19.30;17.70;;;5.40;99.90;;;;;;5120148;27;20472;-76
2020/12/21 07:48:32;;;;;;;18.77;17.27;;;5.50;99.90;;;;;;5127051;27;20939;-75
2020/12/21 07:51:02;;;;;;;18.57;17.03;;;5.50;99.90;;;;;;5128666;27;20483;-75
2020/12/21 07:53:36;;;;;;;19.67;18.00;;;5.50;99.90;;;;;;5127175;27;20452;-74
2020/12/21 07:56:02;;;;;;;19.40;17.67;;;5.60;99.90;;;;;;5124551;27;20460;-74
2020/12/21 07:58:28;;;;;;;21.97;19.37;;;5.60;99.90;;;;;;5124550;27;20760;-75
2020/12/21 08:00:57;;;;;;;20.30;18.17;;;5.60;99.90;;;;;;5120627;27;20453;-74
2020/12/21 08:03:25;;;;;;;21.97;18.70;;;5.70;99.90;;;;;;5116190;27;20469;-75
2020/12/21 08:06:04;;;;;;;19.23;17.03;;;5.70;99.90;;;;;;5118797;27;20461;-75
2020/12/21 08:08:31;;;;;;;18.83;17.50;;;5.70;99.90;;;;;;5124493;27;21137;-75
2020/12/21 08:11:00;;;;;;;18.70;17.50;;;5.80;99.90;;;;;;5120543;27;20508;-76
2020/12/21 08:13:27;;;;;;;18.77;17.37;;;5.80;99.90;;;;;;5120868;27;20539;-75
2020/12/21 08:16:06;;;;;;;19.93;18.20;;;5.80;99.90;;;;;;5120530;27;20966;-76
2020/12/21 08:18:32;;;;;;;19.00;17.30;;;5.90;99.90;;;;;;5117002;27;20490;-75
2020/12/21 08:20:58;;;;;;;18.90;17.20;;;6.00;99.90;;;;;;5122444;27;20874;-76
2020/12/21 08:23:28;;;;;;;19.87;17.70;;;6.00;99.90;;;;;;5117735;27;20471;-75
2020/12/21 08:25:54;;;;;;;18.67;17.17;;;6.10;99.90;;;;;;5116192;27;20834;-74
2020/12/21 08:28:28;;;;;;;17.00;16.10;;;6.10;99.90;;;;;;5115895;27;20457;-76
2020/12/21 08:31:08;;;;;;;19.37;17.70;;;6.20;99.90;;;;;;5119311;27;21008;-76
2020/12/21 08:33:35;;;;;;;18.80;17.20;;;6.20;99.90;;;;;;5117349;27;20477;-76
2020/12/21 08:36:19;;;;;;;22.43;18.33;;;6.20;99.90;;;;;;5117401;27;20470;-76
2020/12/21 08:38:48;;;;;;;18.27;16.77;;;6.20;99.90;;;;;;5118185;27;20452;-74
2020/12/21 08:41:14;;;;;;;18.10;16.47;;;6.30;99.90;;;;;;5116043;27;20462;-74
2020/12/21 08:43:41;;;;;;;18.40;16.67;;;6.30;99.90;;;;;;5122350;27;20462;-76
2020/12/21 08:46:11;;;;;;;18.30;16.70;;;6.30;99.90;;;;;;5123023;27;20452;-74
2020/12/21 08:48:42;;;;;;;18.97;17.37;;;6.40;99.90;;;;;;5116213;27;20499;-75
2020/12/21 08:51:10;;;;;;;18.67;17.00;;;6.40;99.90;;;;;;5115272;27;20485;-75
2020/12/21 08:53:36;;;;;;;18.43;16.60;;;6.50;99.90;;;;;;5117738;27;20523;-74
2020/12/21 08:56:14;;;;;;;17.37;16.13;;;6.50;99.90;;;;;;5120233;27;21050;-76
2020/12/21 08:58:41;;;;;;;17.60;16.30;;;6.60;99.90;;;;;;5121789;27;20507;-76
2020/12/21 09:01:09;;;;;;;18.07;15.50;;;6.60;99.90;;;;;;5122913;27;20517;-75
2020/12/21 09:03:36;;;;;;;18.37;16.70;;;6.60;99.90;;;;;;5122049;27;20955;-76
2020/12/21 09:06:04;;;;;;;18.33;16.10;;;6.70;99.90;;;;;;5120140;27;20470;-75
2020/12/21 09:08:30;;;;;;;16.07;14.87;;;6.70;99.90;;;;;;5126397;27;20456;-75
2020/12/21 09:10:57;;;;;;;24.87;16.17;;;6.70;99.90;;;;;;5123585;27;20484;-75
2020/12/21 09:13:24;;;;;;;17.83;16.13;;;6.70;99.90;;;;;;5124552;27;20516;-75
2020/12/21 09:15:51;;;;;;;16.60;15.40;;;6.80;99.90;;;;;;5119230;27;20543;-75
2020/12/21 09:18:17;;;;;;;16.13;15.00;;;6.80;99.90;;;;;;5114888;27;20453;-74
2020/12/21 09:20:45;;;;;;;21.63;16.10;;;6.90;99.90;;;;;;5117939;27;20457;-74
2020/12/21 09:23:11;;;;;;;17.63;15.13;;;7.00;99.90;;;;;;5123417;27;20463;-76
2020/12/21 09:25:38;;;;;;;16.33;14.70;;;7.00;99.90;;;;;;5113837;27;20585;-76
2020/12/21 09:28:04;;;;;;;16.40;15.30;;;7.10;99.90;;;;;;5114902;27;20481;-74
2020/12/21 09:30:34;;;;;;;16.30;15.17;;;7.10;99.90;;;;;;5112592;27;20508;-75
2020/12/21 09:33:01;;;;;;;16.97;15.20;;;7.20;99.90;;;;;;5114940;27;20464;-77
2020/12/21 09:35:28;;;;;;;21.70;15.70;;;7.20;99.90;;;;;;5118511;27;20456;-76
2020/12/21 09:37:55;;;;;;;17.10;15.80;;;7.30;99.90;;;;;;5113243;27;20458;-76
2020/12/21 09:40:21;;;;;;;17.87;16.23;;;7.40;99.90;;;;;;5115868;27;20460;-76
2020/12/21 09:42:48;;;;;;;18.93;17.73;;;7.40;99.90;;;;;;5111934;27;20850;-76
2020/12/21 09:45:15;;;;;;;20.30;18.70;;;7.50;99.90;;;;;;5117351;27;21297;-75
2020/12/21 09:47:43;;;;;;;21.37;19.27;;;7.50;99.90;;;;;;5117298;27;20458;-76
2020/12/21 09:50:10;;;;;;;23.57;21.33;;;7.50;99.90;;;;;;5117303;27;20479;-76
2020/12/21 09:52:37;;;;;;;21.57;20.07;;;7.60;99.90;;;;;;5113036;27;20467;-76
2020/12/21 09:55:05;;;;;;;21.67;20.10;;;7.60;99.90;;;;;;5121543;27;20466;-76
2020/12/21 09:57:32;;;;;;;21.80;20.20;;;7.70;99.90;;;;;;5117529;27;20471;-75
2020/12/21 09:59:58;;;;;;;22.20;20.60;;;7.70;99.90;;;;;;5118356;27;20525;-76
2020/12/21 10:02:25;;;;;;;22.27;20.83;;;7.80;99.90;;;;;;5118645;27;20532;-76
2020/12/21 10:04:52;;;;;;;22.37;20.50;;;7.80;99.90;;;;;;5114929;27;20942;-76
2020/12/21 10:07:19;;;;;;;23.87;21.63;;;7.80;99.90;;;;;;5113274;27;20463;-76
2020/12/21 10:09:45;;;;;;;22.57;20.73;;;7.80;99.90;;;;;;5116392;27;20488;-76
2020/12/21 10:12:11;;;;;;;22.67;20.70;;;7.90;99.90;;;;;;5122669;27;20958;-76
2020/12/21 10:14:42;;;;;;;28.20;23.33;;;8.00;99.90;;;;;;5118863;27;20454;-76
2020/12/21 10:17:10;;;;;;;22.17;20.57;;;8.00;99.90;;;;;;5114373;27;20465;-76
2020/12/21 10:19:37;;;;;;;23.10;20.60;;;8.10;99.90;;;;;;5117278;28;20464;-75
2020/12/21 10:22:06;;;;;;;22.80;20.70;;;8.20;99.90;;;;;;5115594;28;20464;-76
2020/12/21 10:24:33;;;;;;;23.67;21.47;;;8.30;99.90;;;;;;5115436;28;20534;-76
2020/12/21 10:27:00;;;;;;;24.40;21.93;;;8.30;99.90;;;;;;5118885;28;20528;-75
2020/12/21 10:29:27;;;;;;;25.43;21.60;;;8.20;99.90;;;;;;5114157;28;20451;-75
2020/12/21 10:31:57;;;;;;;24.77;22.57;;;8.20;99.90;;;;;;5120986;28;20483;-76
2020/12/21 10:34:24;;;;;;;26.00;23.20;;;8.20;99.90;;;;;;5117498;28;20472;-75
2020/12/21 10:36:51;;;;;;;27.63;22.83;;;8.30;99.90;;;;;;5111551;28;20460;-75
2020/12/21 10:39:19;;;;;;;28.70;23.10;;;8.30;99.90;;;;;;5117875;28;20561;-75
2020/12/21 10:41:47;;;;;;;27.23;21.30;;;8.30;99.90;;;;;;5109600;28;20659;-76
2020/12/21 10:44:14;;;;;;;24.67;21.70;;;8.20;99.90;;;;;;5117010;28;20536;-77
2020/12/21 10:46:41;;;;;;;24.13;21.40;;;8.20;99.90;;;;;;5123941;28;20998;-76
2020/12/21 10:49:07;;;;;;;26.70;21.40;;;8.20;99.90;;;;;;5118860;28;20453;-77
2020/12/21 10:51:34;;;;;;;23.50;21.17;;;8.20;99.90;;;;;;5118268;28;20994;-76
2020/12/21 10:54:01;;;;;;;22.70;20.80;;;8.20;99.90;;;;;;5112480;28;20460;-76
2020/12/21 10:56:29;;;;;;;23.17;20.67;;;8.20;99.90;;;;;;5118083;28;20523;-76
2020/12/21 10:58:56;;;;;;;22.50;20.50;;;8.20;99.90;;;;;;5119172;28;20571;-77
2020/12/21 11:01:23;;;;;;;33.90;21.03;;;8.10;99.90;;;;;;5117036;28;20471;-76
2020/12/21 11:03:49;;;;;;;24.10;20.63;;;8.10;99.90;;;;;;5119015;28;20450;-75
2020/12/21 11:06:24;;;;;;;23.20;21.40;;;8.10;99.90;;;;;;5120282;28;20463;-76
2020/12/21 11:08:51;;;;;;;24.30;22.23;;;8.20;99.90;;;;;;5110536;28;20886;-76
2020/12/21 11:11:26;;;;;;;23.67;21.87;;;8.20;99.90;;;;;;5124643;27;20489;-75
2020/12/21 11:13:54;;;;;;;24.33;22.23;;;8.20;99.90;;;;;;5119980;27;20497;-76
2020/12/21 11:16:21;;;;;;;24.30;22.20;;;8.30;99.90;;;;;;5125767;27;20467;-76
2020/12/21 11:18:48;;;;;;;25.60;22.90;;;8.30;99.90;;;;;;5120896;27;20444;-76
2020/12/21 11:21:16;;;;;;;26.43;22.60;;;8.30;99.90;;;;;;5119189;27;20463;-76
2020/12/21 11:23:43;;;;;;;24.73;22.53;;;8.30;99.90;;;;;;5115345;27;20460;-76
2020/12/21 11:26:10;;;;;;;25.50;23.27;;;8.30;99.90;;;;;;5123989;27;20457;-76
2020/12/21 11:28:36;;;;;;;24.40;22.30;;;8.30;99.90;;;;;;5121418;27;20452;-76
2020/12/21 11:31:04;;;;;;;24.67;22.33;;;8.30;99.90;;;;;;5120380;27;20832;-76
2020/12/21 11:33:31;;;;;;;25.60;22.93;;;8.30;99.90;;;;;;5121059;27;20550;-76
2020/12/21 11:35:58;;;;;;;24.13;22.07;;;8.30;99.90;;;;;;5121851;27;20869;-75
2020/12/21 11:38:24;;;;;;;23.33;21.70;;;8.40;99.90;;;;;;5119674;27;20452;-76
2020/12/21 11:40:51;;;;;;;25.33;22.97;;;8.40;99.90;;;;;;5121261;27;20468;-76
2020/12/21 11:43:17;;;;;;;24.47;22.33;;;8.40;99.90;;;;;;5121403;27;20461;-76
2020/12/21 11:45:46;;;;;;;23.87;21.77;;;8.40;99.90;;;;;;5119624;27;20463;-76
2020/12/21 11:48:13;;;;;;;23.97;21.87;;;8.50;99.90;;;;;;5119892;27;20478;-76
2020/12/21 11:50:40;;;;;;;28.63;22.10;;;8.50;99.90;;;;;;5120599;27;20484;-76
2020/12/21 11:53:06;;;;;;;24.80;22.47;;;8.50;99.90;;;;;;5117116;27;20461;-76
2020/12/21 11:55:33;;;;;;;24.30;21.97;;;8.50;99.90;;;;;;5119724;27;20957;-76
2020/12/21 11:57:59;;;;;;;23.60;21.80;;;8.60;99.90;;;;;;5116101;27;20824;-76
2020/12/21 12:00:25;;;;;;;25.00;22.70;;;8.70;99.90;;;;;;5126033;27;20481;-76
2020/12/21 12:02:51;;;;;;;25.00;22.83;;;8.60;99.90;;;;;;5122039;27;20832;-76
2020/12/21 12:05:19;;;;;;;24.83;22.87;;;8.60;99.90;;;;;;5126396;27;20463;-75
2020/12/21 12:07:45;;;;;;;25.33;22.83;;;8.50;99.90;;;;;;5122807;27;20837;-75
2020/12/21 12:10:15;;;;;;;26.30;24.10;;;8.50;99.90;;;;;;5122808;27;20989;-75
2020/12/21 12:12:41;;;;;;;27.50;24.70;;;8.50;99.90;;;;;;5121138;27;20954;-75
2020/12/21 12:15:08;;;;;;;26.10;23.80;;;8.50;99.90;;;;;;5117717;27;20457;-75
2020/12/21 12:17:34;;;;;;;27.63;24.80;;;8.50;99.90;;;;;;5127715;27;20487;-75
2020/12/21 12:20:01;;;;;;;26.67;24.33;;;8.50;99.90;;;;;;5120260;27;20457;-76
2020/12/21 12:22:29;;;;;;;26.43;23.90;;;8.40;99.90;;;;;;5120856;27;20464;-77
2020/12/21 12:24:55;;;;;;;25.47;23.43;;;8.30;99.90;;;;;;5120291;27;20990;-77
2020/12/21 12:27:22;;;;;;;25.73;23.27;;;8.30;99.90;;;;;;5119079;27;20980;-77
2020/12/21 12:29:48;;;;;;;24.40;22.60;;;8.30;99.90;;;;;;5121657;27;20452;-78
2020/12/21 12:32:16;;;;;;;25.50;23.30;;;8.30;99.90;;;;;;5125660;27;20456;-76
2020/12/21 12:34:43;;;;;;;25.70;23.07;;;8.30;99.90;;;;;;5116730;27;20484;-77
2020/12/21 12:37:09;;;;;;;28.47;22.83;;;8.30;99.90;;;;;;5123004;27;20454;-77
2020/12/21 12:39:38;;;;;;;25.40;23.00;;;8.30;99.90;;;;;;5116031;27;20591;-78